Silverio Manuel — CUEZ7 — position and weather

sailwx.info

Track history (hours):
 
Tides and Currents Weather Stations Pressure Air Temp Water Temp Dewpoint Dewpoint Depression Visibility Wind Speed Wind Dir Waves Ship Positions

Silverio Manuel

Last reported at 2018-Jan-11 18:46 UTC. Time now 2018-Jan-20 13:21 UTC.
Position N 41°07' W 008°44'.
Warning: this ship's position is 8 days out of date.

Length 20 m.

Type: Fishing. MMSI: 263412870.

Date/timePositionNaut miles runAvg speedWind from/ knotsBaromVisibWave heightAir tempDewpointWater temp
2018-Jan-11 18:46N 41°07' W 008°44'2 7.5
2018-Jan-11 18:30N 41°09' W 008°43'2 4.5
2018-Jan-11 18:00N 41°11' W 008°42'0 0.0
2018-Jan-10 12:10N 41°11' W 008°42'0 0.0
2018-Jan-10 12:01N 41°11' W 008°42'0 0.0
2018-Jan-10 11:31N 41°11' W 008°42'0 0.3
2018-Jan-10 11:01N 41°11' W 008°42'0 0.3
2018-Jan-10 10:30N 41°11' W 008°42'0 0.0
2018-Jan-10 10:01N 41°11' W 008°42'0 0.0
2018-Jan-10 09:30N 41°11' W 008°42'0 0.0
2018-Jan-10 09:00N 41°11' W 008°42'0 0.0
2018-Jan-10 08:30N 41°11' W 008°42'0 0.0
2018-Jan-10 08:01N 41°11' W 008°42'0 0.0
2018-Jan-10 07:31N 41°11' W 008°42'0 0.0
2018-Jan-10 07:01N 41°11' W 008°42'0 0.0
2018-Jan-10 06:31N 41°11' W 008°42'0 0.0
2018-Jan-10 06:01N 41°11' W 008°42'0 0.0
2018-Jan-10 05:31N 41°11' W 008°42'0 0.0
2018-Jan-10 05:01N 41°11' W 008°42'2 3.4
2018-Jan-10 04:31N 41°09' W 008°43'4 7.3
2018-Jan-10 04:00N 41°06' W 008°46'  
2018-Jan-07 22:01N 41°05' W 008°45'0 7.2
2018-Jan-07 22:00N 41°05' W 008°45'3 7.0
2018-Jan-07 21:30N 41°09' W 008°44'3 5.4
2018-Jan-07 21:00N 41°11' W 008°42'  
2018-Jan-04 19:03N 41°11' W 008°42'0 0.1
2018-Jan-04 19:00N 41°11' W 008°42'0 0.0
2018-Jan-04 18:30N 41°11' W 008°42'0 0.0
2018-Jan-04 18:00N 41°11' W 008°42'0 0.5
2018-Jan-04 17:30N 41°11' W 008°42'  
Track history (hours):
 
Tides and Currents Weather Stations Pressure Air Temp Water Temp Dewpoint Dewpoint Depression Visibility Wind Speed Wind Dir Waves Ship Positions

Silverio Manuel

Last reported at 2018-Jan-11 18:46 UTC. Time now 2018-Jan-20 13:21 UTC.
Position N 41°07' W 008°44'.
Warning: this ship's position is 8 days out of date.

Length 20 m.

Type: Fishing. MMSI: 263412870.

Date/timePositionNaut miles runAvg speedWind from/ knotsBaromVisibWave heightAir tempDewpointWater temp
2018-Jan-11 18:46N 41°07' W 008°44'2 7.5
2018-Jan-11 18:30N 41°09' W 008°43'2 4.5
2018-Jan-11 18:00N 41°11' W 008°42'0 0.0
2018-Jan-10 12:10N 41°11' W 008°42'0 0.0
2018-Jan-10 12:01N 41°11' W 008°42'0 0.0
2018-Jan-10 11:31N 41°11' W 008°42'0 0.3
2018-Jan-10 11:01N 41°11' W 008°42'0 0.3
2018-Jan-10 10:30N 41°11' W 008°42'0 0.0
2018-Jan-10 10:01N 41°11' W 008°42'0 0.0
2018-Jan-10 09:30N 41°11' W 008°42'0 0.0
2018-Jan-10 09:00N 41°11' W 008°42'0 0.0
2018-Jan-10 08:30N 41°11' W 008°42'0 0.0
2018-Jan-10 08:01N 41°11' W 008°42'0 0.0
2018-Jan-10 07:31N 41°11' W 008°42'0 0.0
2018-Jan-10 07:01N 41°11' W 008°42'0 0.0
2018-Jan-10 06:31N 41°11' W 008°42'0 0.0
2018-Jan-10 06:01N 41°11' W 008°42'0 0.0
2018-Jan-10 05:31N 41°11' W 008°42'0 0.0
2018-Jan-10 05:01N 41°11' W 008°42'2 3.4
2018-Jan-10 04:31N 41°09' W 008°43'4 7.3
2018-Jan-10 04:00N 41°06' W 008°46'  
2018-Jan-07 22:01N 41°05' W 008°45'0 7.2
2018-Jan-07 22:00N 41°05' W 008°45'3 7.0
2018-Jan-07 21:30N 41°09' W 008°44'3 5.4
2018-Jan-07 21:00N 41°11' W 008°42'  
2018-Jan-04 19:03N 41°11' W 008°42'0 0.1
2018-Jan-04 19:00N 41°11' W 008°42'0 0.0
2018-Jan-04 18:30N 41°11' W 008°42'0 0.0
2018-Jan-04 18:00N 41°11' W 008°42'0 0.5
2018-Jan-04 17:30N 41°11' W 008°42'  

Dump ship's entire track history